Lufkin, TX

6:09 AM CST on December 11, 2016 (GMT -0600)
| | Change Station
Active Advisory: Lake Wind Advisory

Elev -9999 ft 0.00 °N, 0.00 °E | Updated 0 second ago

Overcast
Overcast
73 °F
Feels Like 73 °F
N
9
Wind Variable Wind from SSE
Gusts 15 mph

Today
High -- | Low -- °F
--% Chance of Precip.
Yesterday
High -- | Low -- °F
Precip. -- in
Pressure 30.08 in
Visibility 10.0 miles
Clouds Scattered Clouds 2700 ft
Mostly Cloudy 4900 ft
Mostly Cloudy 7000 ft
Dew Point 71 °F
Humidity 95%
Rainfall --
Snow Depth Not available.
7:08 AM 5:16 PM
Waxing Gibbous, 91% visible
METAR KLFK 111153Z AUTO 14009KT 10SM SCT027 BKN049 BKN070 10/06 A3008 RMK AO2 SLP184 T01000061 10100 20089 56024
Pressure 30.08 in
Visibility 10.0 miles
Clouds Scattered Clouds 2700 ft
Mostly Cloudy 4900 ft
Mostly Cloudy 7000 ft
Dew Point 71 °F
Humidity 95%
Rainfall --
Snow Depth Not available.
7:08 AM 5:16 PM
Waxing Gibbous, 91% visible
METAR KLFK 111153Z AUTO 14009KT 10SM SCT027 BKN049 BKN070 10/06 A3008 RMK AO2 SLP184 T01000061 10100 20089 56024

10-Day Weather Forecast

Almanac

Astronomy

Dec. 11, 2016 Rise Set
Actual Time
Civil Twilight
Nautical Twilight
Astronomical Twilight
Moon
Length of Visible Light
Length of Day
Tomorrow will be .
, % of the Moon is Illuminated

Today's Extremes

State Highs State Lows

Community

WunderPhotos

Upload Photos

1,956,710 photos uploaded!

WunderBlog® & News

Nearby

Air Quality

  Air Quality AQ Index Pollutant
Not available.

Snow Depth

Station Depth Elevation

Earthquake Activity

City Distance Mag. Time & Date
Minimum magnitude displayed is 2.5.

Coastal Water Temperatures

Place Temperature

Stations

Nearby Weather Stations

Station Location Temp. Windchill Dew Point Humidity Wind Precip. Elev Updated Type
                   

Watches & Warnings

Lake Wind Advisory
Issued: 5:08 AM CST Dec. 11, 2016 – National Weather Service

... Lake Wind Advisory will be in effect from 11 am until 6 PM...

* event... a tight pressure gradient will develop today as the
recent cold air mass moves east. Warmer southerly winds of 15 to
25 mph will spread in across all of eastern Texas and Toledo
Bend country.

* Timing... the southerly winds will become gusty by late this
morning and on through this afternoon... subsiding by sunset.


* Impact... gusty southerly winds will make for hazardous boating
conditions on area lakes. Also... a cross wind will affect travel
for large profile vehicles along I-20 from Tyler to Shreveport.


Precautionary/preparedness actions...

A lake Wind Advisory indicates that winds will cause rough chop
on our lakes. Small boats will be especially prone taking on
water over the stern while anchored or power poling. Also small
craft could capsize if running hard on open water.



24